createdAt,value
2022-11-16T00:01:00.771Z,17.50
2022-11-16T00:03:28.285Z,17.27
2022-11-16T00:05:57.400Z,17.48
2022-11-16T00:08:25.256Z,18.05
2022-11-16T00:10:53.260Z,18.67
2022-11-16T00:13:21.057Z,18.25
2022-11-16T00:15:57.035Z,19.30
2022-11-16T00:18:24.943Z,19.63
2022-11-16T00:20:52.504Z,21.30
2022-11-16T00:23:20.205Z,19.52
2022-11-16T00:25:47.759Z,20.38
2022-11-16T00:28:15.437Z,19.93
2022-11-16T00:30:43.023Z,20.02
2022-11-16T00:33:15.500Z,20.77
2022-11-16T00:35:43.320Z,18.88
2022-11-16T00:38:10.905Z,19.52
2022-11-16T00:40:38.497Z,18.77
2022-11-16T00:43:06.093Z,18.60
2022-11-16T00:45:33.612Z,18.65
2022-11-16T00:48:01.160Z,18.42
2022-11-16T00:50:30.059Z,18.33
2022-11-16T00:52:57.593Z,19.02
2022-11-16T00:55:25.121Z,18.60
2022-11-16T00:57:52.685Z,18.92
2022-11-16T01:00:20.819Z,18.17
2022-11-16T01:02:48.378Z,17.70
2022-11-16T01:05:15.898Z,17.27
2022-11-16T01:07:44.789Z,18.33
2022-11-16T01:10:14.152Z,18.52
2022-11-16T01:12:41.132Z,17.27
2022-11-16T01:15:10.124Z,17.58
2022-11-16T01:17:37.845Z,17.80
2022-11-16T01:20:08.445Z,16.75
2022-11-16T01:22:36.625Z,17.17
2022-11-16T01:25:06.217Z,17.30
2022-11-16T01:27:33.818Z,19.05
2022-11-16T01:30:01.452Z,17.33
2022-11-16T01:32:29.015Z,17.15
2022-11-16T01:34:56.566Z,16.42
2022-11-16T01:37:24.086Z,16.80
2022-11-16T01:39:51.908Z,17.05
2022-11-16T01:42:21.976Z,16.73
2022-11-16T01:44:58.410Z,17.40
2022-11-16T01:47:26.243Z,16.65
2022-11-16T01:49:58.327Z,16.97
2022-11-16T01:52:28.100Z,16.65
2022-11-16T01:54:55.859Z,17.55
2022-11-16T01:57:28.143Z,17.33
2022-11-16T01:59:59.022Z,17.67
2022-11-16T02:02:26.604Z,18.15
2022-11-16T02:04:55.048Z,18.50
2022-11-16T02:07:31.890Z,17.88
2022-11-16T02:10:10.207Z,18.15
2022-11-16T02:13:04.059Z,18.37
2022-11-16T02:15:35.595Z,20.20
2022-11-16T02:18:17.197Z,20.13
2022-11-16T02:21:05.129Z,18.80
2022-11-16T02:24:06.455Z,19.07
2022-11-16T02:26:48.493Z,13.63
2022-11-16T02:29:21.793Z,13.68
2022-11-16T02:31:58.336Z,10.25
2022-11-16T02:34:28.239Z,5.07
2022-11-16T02:36:56.811Z,3.85
2022-11-16T02:39:28.020Z,3.20
2022-11-16T02:41:56.907Z,4.70
2022-11-16T02:44:29.806Z,2.55
2022-11-16T02:47:00.464Z,3.73
2022-11-16T02:49:29.043Z,4.65
2022-11-16T02:51:57.257Z,5.05
2022-11-16T02:54:25.011Z,4.13
2022-11-16T02:56:55.579Z,3.85
2022-11-16T02:59:25.077Z,4.65
2022-11-16T03:02:00.314Z,5.25
2022-11-16T03:04:30.877Z,6.65
2022-11-16T03:06:59.008Z,5.43
2022-11-16T03:09:29.382Z,5.18
2022-11-16T03:12:02.414Z,5.00
2022-11-16T03:14:32.946Z,3.85
2022-11-16T03:17:03.522Z,4.03
2022-11-16T03:19:35.284Z,5.10
2022-11-16T03:22:07.618Z,7.28
2022-11-16T03:24:35.228Z,5.88
2022-11-16T03:27:12.229Z,6.47
2022-11-16T03:29:42.345Z,5.00
2022-11-16T03:32:16.451Z,5.35
2022-11-16T03:34:47.193Z,4.60
2022-11-16T03:37:15.144Z,6.15
2022-11-16T03:39:42.830Z,4.85
2022-11-16T03:42:14.010Z,6.28
2022-11-16T03:44:43.229Z,5.20
2022-11-16T03:47:12.804Z,6.78
2022-11-16T03:49:42.226Z,7.13
2022-11-16T03:52:09.797Z,9.10
2022-11-16T03:54:37.341Z,5.00
2022-11-16T03:57:04.929Z,7.05
2022-11-16T03:59:32.457Z,6.88
2022-11-16T04:02:00.012Z,6.25
2022-11-16T04:04:46.345Z,7.00
2022-11-16T04:07:31.680Z,5.32
2022-11-16T04:10:17.081Z,7.00
2022-11-16T04:13:03.004Z,6.90
2022-11-16T04:15:56.612Z,4.53
2022-11-16T04:18:42.374Z,6.57
2022-11-16T04:21:36.499Z,5.88
2022-11-16T04:24:13.056Z,5.88
2022-11-16T04:26:58.735Z,6.07
2022-11-16T04:29:26.548Z,4.47
2022-11-16T04:32:11.033Z,5.80
2022-11-16T04:34:56.360Z,5.60
2022-11-16T04:37:42.917Z,7.55
2022-11-16T04:40:11.801Z,10.30
2022-11-16T04:42:38.384Z,9.00
2022-11-16T04:45:24.347Z,10.38
2022-11-16T04:47:52.386Z,10.50
2022-11-16T04:50:20.735Z,12.27
2022-11-16T04:52:49.675Z,9.57
2022-11-16T04:55:17.469Z,9.95
2022-11-16T04:57:45.043Z,11.73
2022-11-16T05:00:13.906Z,12.37
2022-11-16T05:02:41.504Z,12.93
2022-11-16T05:05:10.073Z,12.57
2022-11-16T05:07:37.700Z,14.55
2022-11-16T05:10:08.084Z,15.40
2022-11-16T05:12:35.840Z,17.75
2022-11-16T05:15:03.583Z,19.92
2022-11-16T05:17:31.145Z,18.45
2022-11-16T05:20:16.279Z,21.17
2022-11-16T05:22:43.902Z,22.27
2022-11-16T05:25:12.814Z,22.10
2022-11-16T05:27:40.432Z,24.55
2022-11-16T05:30:09.084Z,23.67
2022-11-16T05:32:36.635Z,23.75
2022-11-16T05:35:04.427Z,25.90
2022-11-16T05:37:31.960Z,23.85
2022-11-16T05:39:59.508Z,22.85
2022-11-16T05:42:28.412Z,24.58
2022-11-16T05:44:55.932Z,24.55
2022-11-16T05:47:23.497Z,20.33
2022-11-16T05:49:51.097Z,24.40
2022-11-16T05:52:18.675Z,24.45
2022-11-16T05:54:46.233Z,22.40
2022-11-16T05:57:15.273Z,16.17
2022-11-16T05:59:44.203Z,18.10
2022-11-16T06:02:11.804Z,21.83
2022-11-16T06:04:39.592Z,18.48
2022-11-16T06:07:07.141Z,18.23
2022-11-16T06:09:34.702Z,19.75
2022-11-16T06:12:02.231Z,18.08
2022-11-16T06:14:29.794Z,22.08
2022-11-16T06:16:58.656Z,22.45
2022-11-16T06:19:32.041Z,28.37
2022-11-16T06:21:59.948Z,32.47
2022-11-16T06:24:27.532Z,28.63
2022-11-16T06:26:55.037Z,30.63
2022-11-16T06:29:22.798Z,28.77
2022-11-16T06:31:50.394Z,32.38
2022-11-16T06:34:19.352Z,34.20
2022-11-16T06:36:46.956Z,30.70
2022-11-16T06:39:14.563Z,34.33
2022-11-16T06:41:42.064Z,34.55
2022-11-16T06:44:09.823Z,32.72
2022-11-16T06:46:37.387Z,31.77
2022-11-16T06:49:04.940Z,32.35
2022-11-16T06:51:33.833Z,30.02
2022-11-16T06:54:01.372Z,30.77
2022-11-16T06:56:29.158Z,32.08
2022-11-16T06:58:56.913Z,32.50
2022-11-16T07:01:24.547Z,27.00
2022-11-16T07:03:52.231Z,30.67
2022-11-16T07:06:19.777Z,28.58
2022-11-16T07:08:48.694Z,30.10
2022-11-16T07:11:16.229Z,32.17
2022-11-16T07:13:43.813Z,28.30
2022-11-16T07:16:12.192Z,30.52
2022-11-16T07:18:41.123Z,28.23
2022-11-16T07:21:09.364Z,29.67
2022-11-16T07:23:37.017Z,28.45
2022-11-16T07:26:07.422Z,24.60
2022-11-16T07:28:35.541Z,22.75
2022-11-16T07:31:03.804Z,27.95
2022-11-16T07:33:31.434Z,25.05
2022-11-16T07:36:02.125Z,24.58
2022-11-16T07:38:30.124Z,24.73
2022-11-16T07:41:00.825Z,24.88
2022-11-16T07:43:31.643Z,23.13
2022-11-16T07:46:30.489Z,25.42
2022-11-16T07:48:50.880Z,20.98
2022-11-16T07:51:19.375Z,21.42
2022-11-16T07:53:47.395Z,24.42
2022-11-16T07:56:14.922Z,21.75
2022-11-16T07:58:43.840Z,21.40
2022-11-16T08:01:13.093Z,20.50
2022-11-16T08:03:41.757Z,17.70
2022-11-16T08:06:12.862Z,18.35
2022-11-16T08:08:40.434Z,17.15
2022-11-16T08:11:10.120Z,17.23
2022-11-16T08:13:40.377Z,18.33
2022-11-16T08:16:12.866Z,15.70
2022-11-16T08:18:41.692Z,16.55
2022-11-16T08:21:10.352Z,17.40
2022-11-16T08:23:37.904Z,16.13
2022-11-16T08:26:07.479Z,17.27
2022-11-16T08:28:35.383Z,15.18
2022-11-16T08:31:10.052Z,15.57
2022-11-16T08:33:37.625Z,14.90
2022-11-16T08:36:11.001Z,15.55
2022-11-16T08:38:41.315Z,13.68
2022-11-16T08:41:09.129Z,16.58
2022-11-16T08:43:39.387Z,15.40
2022-11-16T08:46:08.807Z,16.17
2022-11-16T08:48:37.119Z,13.88
2022-11-16T08:51:21.359Z,16.95
2022-11-16T08:53:49.616Z,12.02
2022-11-16T08:56:18.844Z,14.50
2022-11-16T08:58:47.039Z,15.77
2022-11-16T09:01:18.031Z,13.85
2022-11-16T09:03:46.548Z,13.88
2022-11-16T09:06:14.442Z,14.63
2022-11-16T09:08:43.216Z,13.05
2022-11-16T09:11:12.482Z,13.65
2022-11-16T09:13:40.124Z,12.18
2022-11-16T09:16:08.198Z,11.30
2022-11-16T09:18:37.628Z,11.38
2022-11-16T09:21:05.676Z,11.40
2022-11-16T09:23:33.200Z,10.85
2022-11-16T09:26:02.936Z,11.43
2022-11-16T09:28:30.706Z,10.38
2022-11-16T09:31:01.599Z,8.40
2022-11-16T09:33:30.145Z,8.93
2022-11-16T09:36:02.353Z,10.35
2022-11-16T09:38:40.522Z,11.93
2022-11-16T09:41:27.571Z,9.50
2022-11-16T09:43:59.986Z,9.13
2022-11-16T09:46:30.768Z,10.70
2022-11-16T09:48:59.958Z,9.32
2022-11-16T09:51:30.813Z,8.40
2022-11-16T09:54:01.676Z,10.07
2022-11-16T09:56:30.340Z,9.45
2022-11-16T09:59:03.989Z,7.68
2022-11-16T10:01:34.347Z,9.65
2022-11-16T10:04:06.458Z,10.60
2022-11-16T10:06:43.787Z,8.75
2022-11-16T10:09:12.504Z,8.32
2022-11-16T10:11:48.103Z,10.48
2022-11-16T10:14:29.986Z,8.90
2022-11-16T10:17:02.803Z,9.10
2022-11-16T10:19:35.823Z,9.32
2022-11-16T10:22:11.504Z,9.88
2022-11-16T10:24:50.896Z,8.23
2022-11-16T10:27:45.684Z,10.00
2022-11-16T10:30:16.027Z,9.25
2022-11-16T10:32:48.853Z,8.82
2022-11-16T10:35:19.798Z,8.17
2022-11-16T10:37:51.274Z,10.05
2022-11-16T10:40:24.696Z,10.50
2022-11-16T10:43:05.381Z,9.35
2022-11-16T10:45:39.055Z,10.60
2022-11-16T10:48:13.824Z,8.43
2022-11-16T10:50:44.057Z,10.23
2022-11-16T10:53:15.812Z,9.35
2022-11-16T10:55:43.530Z,10.75
2022-11-16T10:58:11.264Z,9.80
2022-11-16T11:00:42.189Z,9.43
2022-11-16T11:03:11.858Z,8.00
2022-11-16T11:08:25.929Z,10.07
2022-11-16T11:11:01.598Z,8.93
2022-11-16T11:13:28.180Z,14.32
2022-11-16T11:16:15.042Z,8.55
2022-11-16T11:18:42.965Z,11.25
2022-11-16T11:21:16.197Z,10.93
2022-11-16T11:23:46.616Z,10.57
2022-11-16T11:26:35.849Z,13.02
2022-11-16T11:29:09.794Z,11.52
2022-11-16T11:31:41.890Z,8.43
2022-11-16T11:34:16.761Z,7.40
2022-11-16T11:36:47.655Z,9.93
2022-11-16T11:39:30.991Z,8.80
2022-11-16T11:42:04.728Z,8.02
2022-11-16T11:44:34.016Z,6.90
2022-11-16T11:50:04.111Z,5.93
2022-11-16T13:36:43.111Z,9.23
2022-11-16T13:39:12.997Z,5.53
2022-11-16T13:41:45.584Z,8.40
2022-11-16T13:47:01.049Z,6.10
2022-11-16T13:49:32.028Z,4.85
